createdAt,value
2019-06-26T00:00:08.043Z,0
2019-06-26T00:05:06.539Z,0
2019-06-26T00:10:06.357Z,0
2019-06-26T00:15:07.938Z,0
2019-06-26T00:20:07.066Z,0
2019-06-26T00:25:06.311Z,0
2019-06-26T00:29:06.789Z,0
2019-06-26T00:34:07.443Z,0
2019-06-26T00:39:07.021Z,0
2019-06-26T00:44:07.299Z,0
2019-06-26T00:49:06.771Z,0
2019-06-26T00:54:07.040Z,0
2019-06-26T00:59:06.990Z,0
2019-06-26T01:04:09.706Z,0
2019-06-26T01:08:07.954Z,0
2019-06-26T01:13:07.508Z,0
2019-06-26T01:18:06.306Z,0
2019-06-26T01:23:06.592Z,0
2019-06-26T01:28:06.854Z,0
2019-06-26T01:33:07.058Z,0
2019-06-26T01:38:06.331Z,0
2019-06-26T01:43:07.035Z,0
2019-06-26T01:47:06.035Z,0
2019-06-26T01:52:06.314Z,0
2019-06-26T01:57:06.597Z,0
2019-06-26T02:02:06.698Z,0
2019-06-26T02:07:07.036Z,0.83
2019-06-26T02:12:06.493Z,1.67
2019-06-26T02:17:07.086Z,4.17
2019-06-26T02:22:06.460Z,8.33
2019-06-26T02:26:06.501Z,15
2019-06-26T02:31:06.174Z,28.33
2019-06-26T02:36:06.533Z,48.33
2019-06-26T02:41:06.124Z,77.5
2019-06-26T02:46:06.568Z,124.17
2019-06-26T02:51:06.761Z,188.33
2019-06-26T02:56:05.997Z,265
2019-06-26T03:00:08.075Z,348.33
2019-06-26T03:05:07.029Z,442.5
2019-06-26T03:10:06.678Z,544.17
2019-06-26T03:15:10.022Z,660
2019-06-26T03:20:07.045Z,786.67
2019-06-26T03:25:06.346Z,908.33
2019-06-26T03:30:07.955Z,1064.17
2019-06-26T03:35:07.067Z,1285.83
2019-06-26T03:40:06.978Z,1620.83
2019-06-26T03:45:21.376Z,1956.67
2019-06-26T03:49:06.297Z,2212.5
2019-06-26T03:54:06.679Z,2424.17
2019-06-26T03:59:06.876Z,2624.17
2019-06-26T04:04:06.302Z,2820
2019-06-26T04:09:07.032Z,3019.17
2019-06-26T04:14:06.389Z,3440
2019-06-26T04:19:06.590Z,4733.33
2019-06-26T04:23:06.687Z,4908.33
2019-06-26T04:28:06.485Z,6477.5
2019-06-26T04:33:06.178Z,7174.17
2019-06-26T04:38:06.427Z,7645
2019-06-26T04:43:06.114Z,8244.17
2019-06-26T04:48:07.310Z,9085
2019-06-26T04:53:06.680Z,9620.83
2019-06-26T04:58:06.880Z,10211.67
2019-06-26T05:03:06.745Z,9953.33
2019-06-26T05:07:06.920Z,10864.17
2019-06-26T05:12:06.745Z,7149.17
2019-06-26T05:17:05.999Z,5841.67
2019-06-26T05:22:06.520Z,5815
2019-06-26T05:27:06.698Z,5505.83
2019-06-26T05:32:06.990Z,5678.33
2019-06-26T05:37:07.232Z,6221.67
2019-06-26T05:42:07.295Z,6939.17
2019-06-26T05:46:07.022Z,9010
2019-06-26T05:51:06.325Z,7265
2019-06-26T05:56:06.539Z,16939.17
2019-06-26T06:01:06.265Z,18693.33
2019-06-26T06:06:06.259Z,11425
2019-06-26T06:11:06.018Z,10971.67
2019-06-26T06:16:06.661Z,10577.5
2019-06-26T06:21:06.090Z,8846.67
2019-06-26T06:25:06.832Z,11276.67
2019-06-26T06:30:08.431Z,20565
2019-06-26T06:35:06.088Z,22918.33
2019-06-26T06:40:06.865Z,24415
2019-06-26T06:45:07.620Z,24666.67
2019-06-26T06:50:06.241Z,12648.33
2019-06-26T06:55:06.465Z,29023.33
2019-06-26T06:59:07.280Z,37539.16
2019-06-26T07:04:06.679Z,38498.33
2019-06-26T07:09:06.570Z,35914.16
2019-06-26T07:14:06.863Z,33330.83
2019-06-26T07:19:06.372Z,30972.5
2019-06-26T07:24:06.576Z,32254.17
2019-06-26T07:29:06.855Z,30490.83
2019-06-26T07:34:06.680Z,30174.17
2019-06-26T07:38:06.910Z,34417.5
2019-06-26T07:43:06.459Z,32360.83
2019-06-26T07:48:06.695Z,35195.83
2019-06-26T07:53:06.993Z,31525
2019-06-26T07:58:06.237Z,37425.83
2019-06-26T08:03:06.829Z,39358.33
2019-06-26T08:08:06.008Z,39765.83
2019-06-26T08:13:06.730Z,35994.16
2019-06-26T08:17:06.884Z,35058.33
2019-06-26T08:22:07.080Z,34383.33
2019-06-26T08:27:06.298Z,38323.33
2019-06-26T08:32:07.067Z,37075
2019-06-26T08:37:06.340Z,38900.83
2019-06-26T08:42:07.046Z,44649.16
2019-06-26T08:47:06.550Z,44879.16
2019-06-26T08:51:07.024Z,44522.5
2019-06-26T08:56:06.363Z,44091.66
2019-06-26T09:01:06.313Z,46198.33
2019-06-26T09:06:06.593Z,47490.83
2019-06-26T09:11:07.070Z,49789.16
2019-06-26T09:16:06.513Z,40101.66
2019-06-26T09:21:06.885Z,47948.33
2019-06-26T09:25:22.511Z,54612.5
2019-06-26T09:30:08.617Z,43601.66
2019-06-26T09:35:06.818Z,51895
2019-06-26T09:40:06.672Z,54612.5
2019-06-26T09:45:08.454Z,47887.5
2019-06-26T09:50:06.931Z,54612.5
2019-06-26T09:55:06.351Z,43273.33
2019-06-26T10:00:08.069Z,54612.5
2019-06-26T10:04:06.849Z,54612.5
2019-06-26T10:09:06.695Z,54612.5
2019-06-26T10:14:07.099Z,54612.5
2019-06-26T10:19:11.170Z,53958.33
2019-06-26T10:24:06.561Z,54612.5
2019-06-26T10:29:06.786Z,53616.66
2019-06-26T10:34:10.533Z,54612.5
2019-06-26T10:39:07.203Z,54612.5
2019-06-26T10:44:06.431Z,54612.5
2019-06-26T10:48:06.942Z,54612.5
2019-06-26T10:53:07.225Z,54612.5
2019-06-26T10:58:06.333Z,54612.5
2019-06-26T11:03:07.092Z,54612.5
2019-06-26T11:08:06.309Z,54612.5
2019-06-26T11:13:07.002Z,54612.5
2019-06-26T11:18:06.982Z,54612.5
2019-06-26T11:22:06.484Z,52098.33
2019-06-26T11:28:06.559Z,54612.5
2019-06-26T11:32:09.943Z,17691.67
2019-06-26T11:37:07.228Z,25121.67
2019-06-26T11:42:06.860Z,19231.67
2019-06-26T11:47:06.554Z,15862.5
2019-06-26T11:52:07.045Z,54612.5
2019-06-26T11:57:06.548Z,54612.5
2019-06-26T12:02:06.366Z,20119.17
2019-06-26T12:07:06.987Z,52473.33
2019-06-26T12:11:06.822Z,54612.5
2019-06-26T12:16:06.381Z,54612.5
2019-06-26T12:21:06.800Z,54612.5
2019-06-26T12:26:06.331Z,54612.5
2019-06-26T12:31:06.820Z,54612.5
2019-06-26T12:36:06.131Z,54612.5
2019-06-26T12:41:06.945Z,54612.5
2019-06-26T12:46:06.777Z,54612.5
2019-06-26T12:51:05.959Z,54612.5
2019-06-26T12:55:07.316Z,54612.5
2019-06-26T13:00:08.558Z,54612.5
2019-06-26T13:05:06.804Z,54612.5
2019-06-26T13:10:08.340Z,54612.5
2019-06-26T13:15:08.486Z,54612.5
2019-06-26T13:20:09.629Z,54612.5
2019-06-26T13:25:06.673Z,13367.5
2019-06-26T13:30:08.084Z,46158.33
2019-06-26T13:34:06.806Z,48641.66
2019-06-26T13:39:07.348Z,50321.66
2019-06-26T13:44:06.532Z,46643.33
2019-06-26T13:49:06.563Z,53920.83
2019-06-26T13:54:06.862Z,46319.16
2019-06-26T13:59:07.984Z,39864.16
2019-06-26T14:04:06.474Z,48035.83
2019-06-26T14:09:07.432Z,43196.66
2019-06-26T14:13:06.290Z,45036.66
2019-06-26T14:18:06.586Z,47528.33
2019-06-26T14:23:06.817Z,46455
2019-06-26T14:28:07.027Z,35696.66
2019-06-26T14:33:06.600Z,37174.16
2019-06-26T14:38:06.819Z,50177.5
2019-06-26T14:43:06.164Z,54575
2019-06-26T14:47:06.335Z,44021.66
2019-06-26T14:52:06.903Z,41108.33
2019-06-26T14:57:07.150Z,39918.33
2019-06-26T15:02:06.280Z,34877.5
2019-06-26T15:07:06.544Z,33933.33
2019-06-26T15:12:07.879Z,35686.66
2019-06-26T15:17:06.999Z,37370
2019-06-26T15:22:06.255Z,34226.66
2019-06-26T15:26:06.718Z,32267.5
2019-06-26T15:31:07.103Z,31721.67
2019-06-26T15:36:06.331Z,32220.83
2019-06-26T15:41:07.091Z,29528.33
2019-06-26T15:46:07.279Z,31628.33
2019-06-26T15:51:06.677Z,27832.5
2019-06-26T15:56:07.000Z,26841.67
2019-06-26T16:00:08.214Z,26769.17
2019-06-26T16:05:06.436Z,24780
2019-06-26T16:10:07.086Z,24855
2019-06-26T16:15:08.417Z,23502.5
2019-06-26T16:20:06.072Z,23351.67
2019-06-26T16:25:06.333Z,22414.17
2019-06-26T16:30:07.938Z,21215.83
2019-06-26T16:35:06.481Z,20398.33
2019-06-26T16:39:07.034Z,20611.67
2019-06-26T16:44:06.291Z,19388.33
2019-06-26T16:49:06.851Z,18734.17
2019-06-26T16:54:07.136Z,17423.33
2019-06-26T16:59:06.389Z,16530
2019-06-26T17:04:07.288Z,15682.5
2019-06-26T17:08:06.685Z,14966.67
2019-06-26T17:13:06.839Z,14603.33
2019-06-26T17:18:06.506Z,12864.17
2019-06-26T17:23:06.848Z,12479.17
2019-06-26T17:28:06.467Z,11426.67
2019-06-26T17:33:07.586Z,10217.5
2019-06-26T17:38:06.386Z,10698.33
2019-06-26T17:43:13.110Z,8968.33
2019-06-26T17:48:06.721Z,8655.83
2019-06-26T17:53:22.120Z,7927.5
2019-06-26T17:57:06.362Z,5520
2019-06-26T18:02:06.900Z,6905.83
2019-06-26T18:07:07.289Z,5964.17
2019-06-26T18:12:06.330Z,5182.5
2019-06-26T18:17:22.666Z,4813.33
2019-06-26T18:22:07.007Z,4548.33
2019-06-26T18:27:06.338Z,3617.5
2019-06-26T18:31:06.588Z,2861.67
2019-06-26T18:36:06.920Z,2357.5
2019-06-26T18:41:06.482Z,2371.67
2019-06-26T18:46:05.925Z,1887.5
2019-06-26T18:51:06.612Z,1478.33
2019-06-26T18:56:06.841Z,1285
2019-06-26T19:01:07.107Z,1097.5
2019-06-26T19:05:06.426Z,921.67
2019-06-26T19:10:06.843Z,753.33
2019-06-26T19:15:07.835Z,605.83
2019-06-26T19:20:06.471Z,472.5
2019-06-26T19:25:06.688Z,355.83
2019-06-26T19:30:08.363Z,255.83
2019-06-26T19:39:06.874Z,116.67
2019-06-26T19:44:09.453Z,72.5
2019-06-26T19:49:06.861Z,43.33
2019-06-26T19:54:07.073Z,25
2019-06-26T19:59:06.354Z,14.17
2019-06-26T20:04:06.910Z,7.5
2019-06-26T20:09:06.818Z,4.17
2019-06-26T20:14:06.274Z,1.67
2019-06-26T20:19:06.400Z,0.83
2019-06-26T20:23:07.326Z,0
2019-06-26T20:28:06.681Z,0
2019-06-26T20:33:06.481Z,0
2019-06-26T20:38:06.827Z,0
2019-06-26T20:43:06.585Z,0
2019-06-26T20:48:06.967Z,0
2019-06-26T20:53:06.933Z,0
2019-06-26T20:58:06.498Z,0
2019-06-26T21:02:06.845Z,0
2019-06-26T21:07:07.059Z,0
2019-06-26T21:12:06.730Z,0
2019-06-26T21:17:06.991Z,0
2019-06-26T21:22:09.388Z,0
2019-06-26T21:27:06.624Z,0
2019-06-26T21:32:07.192Z,0
2019-06-26T21:37:06.416Z,0
2019-06-26T21:42:06.332Z,0
2019-06-26T21:46:06.528Z,0
2019-06-26T21:51:06.766Z,0
2019-06-26T21:56:06.164Z,0
2019-06-26T22:01:06.499Z,0
2019-06-26T22:06:06.781Z,0
2019-06-26T22:11:06.911Z,0
2019-06-26T22:16:07.083Z,0
2019-06-26T22:21:06.679Z,0
2019-06-26T22:26:07.030Z,0
2019-06-26T22:30:08.694Z,0
2019-06-26T22:35:06.303Z,0
2019-06-26T22:40:06.928Z,0
2019-06-26T22:45:08.592Z,0
2019-06-26T22:50:06.377Z,0
2019-06-26T22:55:06.575Z,0
2019-06-26T22:59:08.001Z,0
2019-06-26T23:04:07.021Z,0
2019-06-26T23:09:07.748Z,0
2019-06-26T23:14:06.995Z,0
2019-06-26T23:19:06.247Z,0
2019-06-26T23:24:06.469Z,0
2019-06-26T23:29:06.646Z,0
2019-06-26T23:34:06.991Z,0
2019-06-26T23:38:06.950Z,0
2019-06-26T23:43:07.417Z,0
2019-06-26T23:48:07.043Z,0
2019-06-26T23:53:07.292Z,0
2019-06-26T23:58:07.462Z,0
